createdAt,value
2023-03-01T00:01:51.563Z,100.00
2023-03-01T00:04:18.899Z,100.00
2023-03-01T00:06:49.253Z,100.00
2023-03-01T00:09:17.378Z,100.00
2023-03-01T00:11:47.439Z,100.00
2023-03-01T00:14:15.130Z,100.00
2023-03-01T00:16:44.481Z,100.00
2023-03-01T00:19:15.258Z,100.00
2023-03-01T00:21:43.262Z,100.00
2023-03-01T00:24:11.868Z,100.00
2023-03-01T00:26:39.769Z,100.00
2023-03-01T00:29:07.346Z,100.00
2023-03-01T00:31:35.507Z,100.00
2023-03-01T00:34:06.832Z,100.00
2023-03-01T00:36:38.023Z,100.00
2023-03-01T00:39:09.521Z,100.00
2023-03-01T00:41:36.809Z,100.00
2023-03-01T00:44:05.424Z,100.00
2023-03-01T00:46:35.371Z,100.00
2023-03-01T00:49:07.897Z,100.00
2023-03-01T00:51:35.432Z,100.00
2023-03-01T00:54:04.279Z,100.00
2023-03-01T00:56:32.536Z,100.00
2023-03-01T00:59:01.804Z,100.00
2023-03-01T01:01:32.211Z,100.00
2023-03-01T01:04:06.245Z,100.00
2023-03-01T01:06:37.906Z,100.00
2023-03-01T01:09:20.054Z,100.00
2023-03-01T01:11:53.425Z,100.00
2023-03-01T01:14:21.456Z,100.00
2023-03-01T01:16:49.326Z,100.00
2023-03-01T01:19:16.855Z,100.00
2023-03-01T01:21:46.241Z,100.00
2023-03-01T01:24:13.869Z,100.00
2023-03-01T01:26:41.469Z,100.00
2023-03-01T01:29:09.711Z,100.00
2023-03-01T01:31:39.264Z,100.00
2023-03-01T01:34:09.865Z,100.00
2023-03-01T01:36:37.290Z,100.00
2023-03-01T01:39:06.035Z,100.00
2023-03-01T01:41:33.675Z,100.00
2023-03-01T01:44:35.075Z,100.00
2023-03-01T01:47:09.475Z,100.00
2023-03-01T01:49:48.718Z,100.00
2023-03-01T01:52:28.931Z,100.00
2023-03-01T01:55:03.834Z,100.00
2023-03-01T01:57:44.720Z,100.00
2023-03-01T02:00:18.829Z,100.00
2023-03-01T02:02:48.523Z,100.00
2023-03-01T02:05:44.541Z,100.00
2023-03-01T02:08:15.341Z,100.00
2023-03-01T02:10:52.108Z,100.00
2023-03-01T02:13:20.425Z,100.00
2023-03-01T02:15:47.941Z,100.00
2023-03-01T02:18:22.447Z,100.00
2023-03-01T02:21:27.465Z,100.00
2023-03-01T02:23:59.174Z,100.00
2023-03-01T02:26:48.184Z,100.00
2023-03-01T02:29:15.997Z,100.00
2023-03-01T02:31:43.314Z,100.00
2023-03-01T02:34:20.081Z,100.00
2023-03-01T02:36:55.260Z,100.00
2023-03-01T02:39:31.240Z,100.00
2023-03-01T02:42:01.420Z,100.00
2023-03-01T02:44:28.660Z,100.00
2023-03-01T02:46:59.394Z,100.00
2023-03-01T02:49:29.539Z,100.00
2023-03-01T02:52:24.596Z,100.00
2023-03-01T02:55:13.262Z,100.00
2023-03-01T02:57:45.542Z,100.00
2023-03-01T03:00:34.609Z,100.00
2023-03-01T03:03:02.769Z,100.00
2023-03-01T03:05:34.223Z,100.00
2023-03-01T03:08:04.313Z,100.00
2023-03-01T03:10:36.423Z,100.00
2023-03-01T03:13:10.065Z,100.00
2023-03-01T03:15:40.918Z,100.00
2023-03-01T03:18:11.930Z,100.00
2023-03-01T03:20:41.522Z,100.00
2023-03-01T03:23:09.580Z,100.00
2023-03-01T03:25:39.128Z,100.00
2023-03-01T03:28:11.102Z,100.00
2023-03-01T03:30:41.333Z,100.00
2023-03-01T03:33:13.438Z,100.00
2023-03-01T03:35:47.438Z,100.00
2023-03-01T03:38:18.866Z,100.00
2023-03-01T03:41:04.801Z,100.00
2023-03-01T03:43:34.901Z,100.00
2023-03-01T03:46:08.501Z,100.00
2023-03-01T03:48:42.296Z,100.00
2023-03-01T03:51:17.436Z,100.00
2023-03-01T03:53:46.185Z,100.00
2023-03-01T03:56:14.593Z,100.00
2023-03-01T03:58:43.024Z,100.00
2023-03-01T04:01:10.577Z,100.00
2023-03-01T04:03:38.106Z,100.00
2023-03-01T04:06:06.577Z,100.00
2023-03-01T04:08:33.859Z,100.00
2023-03-01T04:11:24.890Z,100.00
2023-03-01T04:13:55.612Z,100.00
2023-03-01T04:16:23.805Z,100.00
2023-03-01T04:18:51.416Z,100.00
2023-03-01T04:21:21.542Z,100.00
2023-03-01T04:23:57.182Z,100.00
2023-03-01T04:26:24.492Z,100.00
2023-03-01T04:28:54.053Z,100.00
2023-03-01T04:31:22.901Z,100.00
2023-03-01T04:33:56.792Z,100.00
2023-03-01T04:36:27.889Z,100.00
2023-03-01T04:38:56.329Z,100.00
2023-03-01T04:41:26.176Z,100.00
2023-03-01T04:43:57.704Z,100.00
2023-03-01T04:46:25.160Z,100.00
2023-03-01T04:48:52.532Z,100.00
2023-03-01T04:51:21.150Z,100.00
2023-03-01T04:53:48.631Z,100.00
2023-03-01T04:56:16.833Z,100.00
2023-03-01T04:58:45.066Z,100.00
2023-03-01T05:01:18.455Z,100.00
2023-03-01T05:03:49.157Z,100.00
2023-03-01T05:06:18.227Z,100.00
2023-03-01T05:08:46.031Z,100.00
2023-03-01T05:11:13.525Z,100.00
2023-03-01T05:13:41.673Z,100.00
2023-03-01T05:16:12.796Z,100.00
2023-03-01T05:18:41.516Z,100.00
2023-03-01T05:21:11.876Z,100.00
2023-03-01T05:23:40.001Z,100.00
2023-03-01T05:26:16.200Z,100.00
2023-03-01T05:28:49.868Z,100.00
2023-03-01T05:31:17.409Z,100.00
2023-03-01T05:33:44.866Z,100.00
2023-03-01T05:36:12.374Z,100.00
2023-03-01T05:38:41.756Z,100.00
2023-03-01T05:41:17.056Z,100.00
2023-03-01T05:43:46.324Z,100.00
2023-03-01T05:46:16.611Z,100.00
2023-03-01T05:48:49.514Z,100.00
2023-03-01T05:51:17.037Z,100.00
2023-03-01T05:53:45.556Z,100.00
2023-03-01T05:56:12.934Z,100.00
2023-03-01T05:58:40.335Z,100.00
2023-03-01T06:01:14.331Z,100.00
2023-03-01T06:03:42.905Z,100.00
2023-03-01T06:06:10.480Z,100.00
2023-03-01T06:08:37.909Z,100.00
2023-03-01T06:11:06.599Z,100.00
2023-03-01T06:13:33.987Z,100.00
2023-03-01T06:16:01.231Z,100.00
2023-03-01T06:18:28.451Z,100.00
2023-03-01T06:20:57.184Z,100.00
2023-03-01T06:23:25.565Z,100.00
2023-03-01T06:25:52.789Z,100.00
2023-03-01T06:28:20.716Z,100.00
2023-03-01T06:30:48.189Z,100.00
2023-03-01T06:33:15.879Z,100.00
2023-03-01T06:35:43.120Z,100.00
2023-03-01T06:38:10.800Z,100.00
2023-03-01T06:40:37.980Z,100.00
2023-03-01T06:43:05.932Z,100.00
2023-03-01T06:45:33.722Z,100.00
2023-03-01T06:48:09.039Z,100.00
2023-03-01T06:50:37.462Z,100.00
2023-03-01T06:53:05.920Z,100.00
2023-03-01T06:55:34.285Z,100.00
2023-03-01T06:58:04.466Z,100.00
2023-03-01T07:00:32.736Z,100.00
2023-03-01T07:03:01.291Z,100.00
2023-03-01T07:05:28.643Z,100.00
2023-03-01T07:07:56.979Z,100.00
2023-03-01T07:10:32.981Z,100.00
2023-03-01T07:13:00.302Z,100.00
2023-03-01T07:15:29.975Z,100.00
2023-03-01T07:17:58.073Z,100.00
2023-03-01T07:20:26.776Z,100.00
2023-03-01T07:22:55.256Z,100.00
2023-03-01T07:25:23.900Z,100.00
2023-03-01T07:27:52.783Z,100.00
2023-03-01T07:30:21.073Z,100.00
2023-03-01T07:32:49.003Z,100.00
2023-03-01T07:35:16.404Z,100.00
2023-03-01T07:37:43.863Z,100.00
2023-03-01T07:40:18.904Z,100.00
2023-03-01T07:42:46.781Z,100.00
2023-03-01T07:45:14.923Z,100.00
2023-03-01T07:47:42.806Z,100.00
2023-03-01T07:50:12.702Z,100.00
2023-03-01T07:52:40.581Z,100.00
2023-03-01T07:55:09.748Z,100.00
2023-03-01T07:57:36.953Z,100.00
2023-03-01T08:00:06.147Z,99.62
2023-03-01T08:02:33.533Z,98.15
2023-03-01T08:05:00.898Z,97.16
2023-03-01T08:07:28.094Z,96.47
2023-03-01T08:09:56.527Z,94.25
2023-03-01T08:12:25.056Z,92.55
2023-03-01T08:14:56.759Z,91.57
2023-03-01T08:17:24.379Z,90.72
2023-03-01T08:19:52.480Z,90.22
2023-03-01T08:22:19.531Z,88.47
2023-03-01T08:24:47.980Z,86.86
2023-03-01T08:27:17.175Z,85.90
2023-03-01T08:29:44.909Z,84.74
2023-03-01T08:32:13.546Z,83.35
2023-03-01T08:34:42.565Z,80.87
2023-03-01T08:37:11.036Z,78.47
2023-03-01T08:39:38.452Z,76.13
2023-03-01T08:42:05.930Z,73.92
2023-03-01T08:44:33.310Z,74.01
2023-03-01T08:47:01.278Z,75.98
2023-03-01T08:49:28.589Z,77.00
2023-03-01T08:51:55.726Z,76.58
2023-03-01T08:54:25.117Z,75.99
2023-03-01T08:56:52.551Z,76.27
2023-03-01T08:59:21.166Z,76.21
2023-03-01T09:01:48.325Z,76.52
2023-03-01T09:04:17.805Z,75.86
2023-03-01T09:06:44.902Z,74.21
2023-03-01T09:09:19.252Z,72.60
2023-03-01T09:11:47.603Z,72.13
2023-03-01T09:14:15.888Z,72.02
2023-03-01T09:16:44.430Z,71.54
2023-03-01T09:19:12.526Z,70.63
2023-03-01T09:21:41.649Z,68.66
2023-03-01T09:24:14.875Z,64.37
2023-03-01T09:26:43.711Z,59.47
2023-03-01T09:29:13.872Z,55.88
2023-03-01T09:31:41.748Z,52.94
2023-03-01T09:34:10.404Z,50.83
2023-03-01T09:36:39.063Z,49.29
2023-03-01T09:39:07.506Z,48.38
2023-03-01T09:41:51.625Z,46.31
2023-03-01T09:44:55.292Z,44.98
2023-03-01T09:47:27.954Z,43.40
2023-03-01T09:50:18.982Z,42.69
2023-03-01T09:53:27.053Z,41.81
2023-03-01T09:56:06.412Z,40.66
2023-03-01T09:58:38.218Z,39.71
2023-03-01T10:01:34.019Z,39.22
2023-03-01T10:04:30.398Z,38.52
2023-03-01T10:07:15.652Z,37.56
2023-03-01T10:09:45.883Z,37.53
2023-03-01T10:12:19.494Z,38.27
2023-03-01T10:15:04.624Z,36.40
2023-03-01T10:17:46.006Z,36.66
2023-03-01T10:20:25.060Z,36.91
2023-03-01T10:22:53.813Z,37.13
2023-03-01T10:25:48.735Z,36.84
2023-03-01T10:28:29.196Z,35.70
2023-03-01T10:31:00.368Z,35.62
2023-03-01T10:33:40.910Z,34.55
2023-03-01T10:36:09.895Z,35.34
2023-03-01T10:38:55.161Z,34.82
2023-03-01T10:41:26.956Z,34.00
2023-03-01T10:43:58.714Z,34.85
2023-03-01T10:46:37.591Z,35.03
2023-03-01T10:49:15.736Z,34.93
2023-03-01T10:51:49.419Z,34.59
2023-03-01T10:54:25.261Z,32.96
2023-03-01T10:56:59.436Z,34.78
2023-03-01T10:59:33.628Z,33.25
2023-03-01T11:02:29.642Z,32.78
2023-03-01T11:08:05.164Z,31.77
2023-03-01T11:10:37.241Z,31.74
2023-03-01T11:13:23.118Z,32.41
2023-03-01T11:16:27.100Z,32.67
2023-03-01T11:19:18.791Z,31.23
2023-03-01T11:22:01.341Z,30.59
2023-03-01T11:24:44.956Z,30.11
2023-03-01T11:27:24.043Z,30.17
2023-03-01T11:30:17.187Z,29.92
2023-03-01T11:32:54.969Z,30.65
2023-03-01T11:35:30.890Z,30.89
2023-03-01T11:38:18.149Z,30.63
2023-03-01T11:40:54.930Z,31.56
2023-03-01T11:43:45.890Z,31.08
2023-03-01T11:46:22.668Z,30.88
2023-03-01T11:49:17.756Z,31.36
2023-03-01T11:52:10.340Z,32.67
2023-03-01T11:55:01.989Z,32.20
2023-03-01T11:57:50.334Z,31.10
2023-03-01T12:00:50.715Z,31.59
2023-03-01T12:03:26.256Z,31.16
2023-03-01T12:06:25.473Z,30.42
2023-03-01T12:09:15.543Z,30.74
2023-03-01T12:11:46.953Z,30.56
2023-03-01T12:15:08.601Z,30.80
2023-03-01T12:18:00.915Z,29.71
2023-03-01T12:20:49.715Z,29.43
2023-03-01T12:23:28.943Z,29.57
2023-03-01T12:26:34.633Z,29.57
2023-03-01T12:29:25.643Z,30.29
2023-03-01T12:32:06.747Z,30.81
2023-03-01T12:35:01.866Z,30.02
2023-03-01T12:37:49.435Z,28.76
2023-03-01T12:40:17.761Z,28.56
2023-03-01T12:43:00.321Z,27.93
2023-03-01T12:45:47.592Z,28.58
2023-03-01T12:48:21.392Z,29.04
2023-03-01T12:50:56.156Z,30.41
2023-03-01T12:53:36.035Z,30.46
2023-03-01T12:56:25.253Z,30.53
2023-03-01T12:59:17.529Z,29.06
2023-03-01T13:02:06.143Z,28.09
2023-03-01T13:05:05.262Z,28.16
2023-03-01T13:07:42.083Z,27.70
2023-03-01T13:10:18.785Z,27.63
2023-03-01T13:12:59.064Z,27.28
2023-03-01T13:15:38.548Z,27.30
2023-03-01T13:18:17.890Z,26.96
2023-03-01T13:20:45.211Z,26.82
2023-03-01T13:23:24.456Z,26.60
2023-03-01T13:26:08.937Z,27.23
2023-03-01T13:28:47.286Z,27.61
2023-03-01T13:31:20.957Z,27.63
2023-03-01T13:33:49.636Z,28.48
2023-03-01T13:36:29.142Z,28.95
2023-03-01T13:38:59.187Z,29.44
2023-03-01T13:41:45.648Z,29.42
2023-03-01T13:44:25.773Z,28.34
2023-03-01T13:46:55.632Z,27.57
2023-03-01T13:49:27.381Z,27.86
2023-03-01T13:51:55.645Z,27.16
2023-03-01T13:54:33.047Z,26.87
2023-03-01T13:57:02.954Z,27.42
2023-03-01T13:59:31.868Z,26.79
2023-03-01T14:02:01.493Z,27.58
2023-03-01T14:04:32.694Z,27.20
2023-03-01T14:07:18.654Z,27.30
2023-03-01T14:09:52.143Z,26.84
2023-03-01T14:12:41.472Z,26.66
2023-03-01T14:15:28.804Z,27.51
2023-03-01T14:18:09.767Z,28.38
2023-03-01T14:20:52.484Z,28.22
2023-03-01T14:23:23.535Z,27.87
2023-03-01T14:25:59.164Z,28.00
2023-03-01T14:28:29.701Z,27.99
2023-03-01T14:30:59.621Z,26.97
2023-03-01T14:33:42.490Z,27.86
2023-03-01T14:36:15.698Z,28.33
2023-03-01T14:38:48.657Z,28.30
2023-03-01T14:41:29.795Z,28.36
2023-03-01T14:44:03.061Z,28.13
2023-03-01T14:46:41.874Z,28.23
2023-03-01T14:49:13.664Z,28.97
2023-03-01T14:51:44.358Z,28.20
2023-03-01T14:54:33.046Z,27.63
2023-03-01T14:57:03.083Z,28.16
2023-03-01T14:59:30.393Z,28.36
2023-03-01T15:01:59.807Z,28.30
2023-03-01T15:04:28.973Z,28.68
2023-03-01T15:07:06.435Z,29.38
2023-03-01T15:09:38.015Z,29.38
2023-03-01T15:12:27.267Z,29.03
2023-03-01T15:15:03.344Z,29.02
2023-03-01T15:17:39.675Z,29.11
2023-03-01T15:20:18.010Z,28.98
2023-03-01T15:22:49.869Z,28.95
2023-03-01T15:25:24.455Z,29.39
2023-03-01T15:27:54.574Z,29.59
2023-03-01T15:30:38.920Z,30.39
2023-03-01T15:33:23.930Z,29.79
2023-03-01T15:35:54.813Z,29.39
2023-03-01T15:38:44.025Z,29.50
2023-03-01T15:41:32.182Z,28.88
2023-03-01T15:44:01.079Z,29.92
2023-03-01T15:46:39.111Z,30.57
2023-03-01T15:49:26.446Z,30.94
2023-03-01T15:51:56.241Z,32.18
2023-03-01T15:54:27.823Z,34.23
2023-03-01T15:56:55.694Z,35.42
2023-03-01T15:59:23.621Z,36.84
2023-03-01T16:01:51.102Z,37.81
2023-03-01T16:04:24.315Z,38.15
2023-03-01T16:06:56.630Z,38.01
2023-03-01T16:09:28.071Z,39.13
2023-03-01T16:11:56.409Z,38.28
2023-03-01T16:14:24.610Z,38.77
2023-03-01T16:16:52.337Z,40.04
2023-03-01T16:19:19.554Z,40.28
2023-03-01T16:21:47.976Z,41.74
2023-03-01T16:24:15.848Z,43.15
2023-03-01T16:26:44.696Z,44.91
2023-03-01T16:29:12.396Z,46.90
2023-03-01T16:31:40.335Z,48.05
2023-03-01T16:34:08.143Z,49.41
2023-03-01T16:36:37.891Z,51.45
2023-03-01T16:39:05.775Z,52.77
2023-03-01T16:41:33.729Z,52.78
2023-03-01T16:44:07.632Z,53.95
2023-03-01T16:46:36.405Z,54.82
2023-03-01T16:49:04.586Z,55.52
2023-03-01T16:51:32.674Z,55.02
2023-03-01T16:54:00.330Z,55.73
2023-03-01T16:56:29.488Z,55.20
2023-03-01T16:58:57.286Z,56.34
2023-03-01T17:01:25.733Z,56.42
2023-03-01T17:03:53.410Z,57.17
2023-03-01T17:06:23.465Z,57.81
2023-03-01T17:08:52.262Z,59.00
2023-03-01T17:11:21.134Z,60.22
2023-03-01T17:13:52.745Z,59.42
2023-03-01T17:16:21.833Z,58.62
2023-03-01T17:18:50.189Z,58.07
2023-03-01T17:21:20.428Z,57.88
2023-03-01T17:23:50.564Z,59.59
2023-03-01T17:26:18.598Z,61.27
2023-03-01T17:28:52.136Z,62.38
2023-03-01T17:31:21.068Z,63.49
2023-03-01T17:33:50.404Z,61.57
2023-03-01T17:36:19.661Z,60.73
2023-03-01T17:38:49.970Z,61.92
2023-03-01T17:41:19.681Z,62.78
2023-03-01T17:43:47.771Z,63.46
2023-03-01T17:46:16.510Z,64.29
2023-03-01T17:48:43.857Z,64.51
2023-03-01T17:51:12.726Z,64.76
2023-03-01T17:53:43.151Z,65.18
2023-03-01T17:56:12.946Z,65.37
2023-03-01T17:58:41.061Z,66.38
2023-03-01T18:01:21.919Z,66.22
2023-03-01T18:03:53.879Z,67.83
2023-03-01T18:06:24.149Z,69.08
2023-03-01T18:08:55.453Z,69.55
2023-03-01T18:11:25.440Z,71.73
2023-03-01T18:13:55.078Z,71.67
2023-03-01T18:16:24.820Z,72.20
2023-03-01T18:19:00.471Z,71.49
2023-03-01T18:21:30.224Z,70.78
2023-03-01T18:24:02.385Z,70.13
2023-03-01T18:26:30.628Z,70.29
2023-03-01T18:29:01.563Z,71.67
2023-03-01T18:31:33.218Z,73.90
2023-03-01T18:34:02.209Z,74.45
2023-03-01T18:36:33.827Z,75.38
2023-03-01T18:39:07.294Z,75.68
2023-03-01T18:41:36.560Z,75.26
2023-03-01T18:44:09.720Z,73.78
2023-03-01T18:46:40.442Z,73.28
2023-03-01T18:49:09.025Z,73.60
2023-03-01T18:51:36.989Z,74.12
2023-03-01T18:54:05.131Z,74.89
2023-03-01T18:56:37.613Z,75.05
2023-03-01T18:59:06.668Z,74.40
2023-03-01T19:01:37.371Z,73.92
2023-03-01T19:04:06.931Z,73.27
2023-03-01T19:06:35.918Z,73.35
2023-03-01T19:09:05.184Z,72.80
2023-03-01T19:11:34.586Z,73.54
2023-03-01T19:14:04.797Z,73.20
2023-03-01T19:16:36.537Z,73.40
2023-03-01T19:19:06.769Z,74.71
2023-03-01T19:21:35.628Z,75.82
2023-03-01T19:24:06.470Z,75.08
2023-03-01T19:26:35.998Z,74.93
2023-03-01T19:29:05.348Z,75.43
2023-03-01T19:31:33.328Z,75.65
2023-03-01T19:34:11.877Z,75.55
2023-03-01T19:36:45.599Z,75.02
2023-03-01T19:39:14.904Z,76.34
2023-03-01T19:41:50.064Z,77.29
2023-03-01T19:44:18.609Z,78.78
2023-03-01T19:46:46.802Z,80.41
2023-03-01T19:49:14.774Z,81.26
2023-03-01T19:51:43.047Z,82.00
2023-03-01T19:54:13.226Z,81.79
2023-03-01T19:56:45.234Z,81.30
2023-03-01T19:59:13.891Z,80.30
2023-03-01T20:01:45.206Z,79.70
2023-03-01T20:04:13.805Z,79.62
2023-03-01T20:06:48.951Z,79.62
2023-03-01T20:09:22.152Z,79.96
2023-03-01T20:11:53.274Z,80.21
2023-03-01T20:14:23.746Z,80.98
2023-03-01T20:16:52.047Z,81.41
2023-03-01T20:19:22.845Z,81.76
2023-03-01T20:21:54.126Z,82.09
2023-03-01T20:24:23.193Z,82.25
2023-03-01T20:26:52.817Z,82.87
2023-03-01T20:29:20.960Z,84.24
2023-03-01T20:31:49.085Z,84.56
2023-03-01T20:34:17.714Z,84.86
2023-03-01T20:36:47.072Z,85.03
2023-03-01T20:39:16.508Z,83.73
2023-03-01T20:41:44.819Z,82.60
2023-03-01T20:44:14.312Z,82.55
2023-03-01T20:46:43.818Z,82.83
2023-03-01T20:49:11.576Z,82.50
2023-03-01T20:51:39.520Z,82.63
2023-03-01T20:54:08.688Z,83.15
2023-03-01T20:56:38.163Z,83.82
2023-03-01T20:59:14.180Z,84.68
2023-03-01T21:01:45.296Z,85.34
2023-03-01T21:04:13.415Z,86.53
2023-03-01T21:06:42.001Z,86.54
2023-03-01T21:09:11.931Z,85.80
2023-03-01T21:11:39.812Z,85.69
2023-03-01T21:14:07.223Z,85.92
2023-03-01T21:16:35.883Z,86.31
2023-03-01T21:19:06.798Z,87.25
2023-03-01T21:21:34.619Z,87.73
2023-03-01T21:24:10.855Z,87.78
2023-03-01T21:26:39.615Z,88.46
2023-03-01T21:29:09.205Z,89.15
2023-03-01T21:31:37.245Z,90.11
2023-03-01T21:34:07.237Z,90.40
2023-03-01T21:36:35.758Z,90.33
2023-03-01T21:39:05.618Z,90.17
2023-03-01T21:41:35.850Z,90.46
2023-03-01T21:44:04.774Z,91.40
2023-03-01T21:46:34.585Z,92.39
2023-03-01T21:49:04.923Z,92.95
2023-03-01T21:51:32.700Z,92.88
2023-03-01T21:54:03.567Z,93.21
2023-03-01T21:56:34.662Z,93.38
2023-03-01T21:59:02.070Z,94.59
2023-03-01T22:01:29.786Z,95.13
2023-03-01T22:03:59.205Z,94.77
2023-03-01T22:06:33.222Z,95.12
2023-03-01T22:09:06.176Z,95.22
2023-03-01T22:11:37.569Z,93.75
2023-03-01T22:14:05.464Z,92.94
2023-03-01T22:16:42.275Z,92.79
2023-03-01T22:19:10.092Z,92.59
2023-03-01T22:21:42.596Z,92.94
2023-03-01T22:24:10.628Z,93.51
2023-03-01T22:26:43.393Z,93.74
2023-03-01T22:29:19.910Z,94.18
2023-03-01T22:31:47.713Z,93.98
2023-03-01T22:34:18.402Z,94.29
2023-03-01T22:36:46.163Z,94.26
2023-03-01T22:39:18.502Z,94.06
2023-03-01T22:41:48.408Z,92.96
2023-03-01T22:44:18.567Z,92.21
2023-03-01T22:46:46.858Z,91.79
2023-03-01T22:49:15.877Z,91.69
2023-03-01T22:51:44.044Z,91.95
2023-03-01T22:54:11.813Z,92.02
2023-03-01T22:56:43.436Z,92.57
2023-03-01T22:59:14.553Z,92.59
2023-03-01T23:01:46.477Z,92.48
2023-03-01T23:04:20.696Z,93.51
2023-03-01T23:06:50.810Z,93.43
2023-03-01T23:09:21.742Z,93.40
2023-03-01T23:11:50.861Z,93.63
2023-03-01T23:14:19.695Z,94.42
2023-03-01T23:16:49.683Z,94.97
2023-03-01T23:19:19.243Z,95.11
2023-03-01T23:21:50.509Z,95.24
2023-03-01T23:24:19.547Z,95.16
2023-03-01T23:26:53.520Z,95.53
2023-03-01T23:29:21.751Z,95.06
2023-03-01T23:31:49.196Z,95.05
2023-03-01T23:34:23.364Z,95.01
2023-03-01T23:36:53.154Z,95.29
2023-03-01T23:39:21.804Z,95.79
2023-03-01T23:41:55.103Z,96.04
2023-03-01T23:44:23.260Z,96.06
2023-03-01T23:46:51.749Z,96.23
2023-03-01T23:49:25.124Z,96.17
2023-03-01T23:51:52.547Z,97.28
2023-03-01T23:54:22.292Z,98.77
2023-03-01T23:56:49.720Z,99.28
2023-03-01T23:59:19.787Z,99.97
